Terminal Aerodrome Forecast
Issued by NWS Charleston, WV

Home | Current Version | Previous Version | Text Only | Print | Product List | Glossary On
Versions: 1 2 3 4 5 6 7 8 9 10 11 12 13 14 15 16 17 18 19 20 21 22 23 24 25 26
000
FTUS41 KRLX 301700 RRA
TAFEKN
TAF
KEKN 301741Z 3018/3118 27006KT 6SM HZ BKN035
      TEMPO 3018/3022 BKN025
     FM302200 29005KT P6SM VCTS BKN050CB
     FM310000 00000KT P6SM VCTS BKN050CB
     FM310200 00000KT P6SM BKN040
     FM310500 00000KT P6SM SCT035
     FM310800 00000KT 3SM BR SCT035
     FM310900 00000KT 1/4SM FG OVC001
     FM311300 00000KT 2SM BR SCT035
     FM311400 VRB03KT 6SM BR HZ SCT035
     FM311600 27005KT P6SM SCT040=

USA.gov is the U.S. government's official web portal to all federal, state and local government web resources and services.